KCYS/CYS METAR and TAF weather

Enter ICAO airport designator
Station Type Date Time Source
KCYS METAR 2019/08/19 11:53 UTC NOAA

KCYS 191153Z 29008KT 10SM CLR 14/M02 A3015 RMK AO2 SLP113 T01391017 10200 20139 53008


Station Type Date Time Source
KCYS Decoded METAR 2019/08/19 11:53 UTC NOAA

Station name not available
Aug 19, 2019 - 07:53 AM EDT / 2019.08.19 1153 UTC
Wind: from the WNW (290 degrees) at 9 MPH (8 KT):0
Visibility: 10 mile(s):0
Sky conditions: clear
Temperature: 57.0 F (13.9 C)
Dew Point: 28.9 F (-1.7 C)
Relative Humidity: 33%
Pressure (altimeter): 30.15 in. Hg (1020 hPa)
Pressure tendency: 0.02 inches (0.8 hPa) higher than three hours ago
ob: KCYS 191153Z 29008KT 10SM CLR 14/M02 A3015 RMK AO2 SLP113 T01391017 10200 20139 53008
cycle: 12

Station Type Date Time Source
KCYS TAF 2019/08/19 12:27 UTC NOAA

TAF KCYS 191124Z 1912/2012 29009KT P6SM SKC
FM191500 27010G20KT P6SM SKC
FM192100 24015KT P6SM SCT150
FM200600 15007KT P6SM SCT250

Example: see airport list